createdAt,value
2018-03-21T00:01:08.036Z,4.40
2018-03-21T00:03:36.431Z,3.23
2018-03-21T00:06:04.901Z,3.50
2018-03-21T00:08:33.333Z,4.23
2018-03-21T00:11:01.752Z,4.60
2018-03-21T00:13:30.222Z,3.53
2018-03-21T00:15:58.634Z,3.97
2018-03-21T00:18:27.057Z,4.47
2018-03-21T00:20:55.518Z,3.80
2018-03-21T00:23:23.944Z,4.00
2018-03-21T00:25:52.362Z,4.27
2018-03-21T00:28:20.823Z,4.10
2018-03-21T00:30:49.230Z,4.40
2018-03-21T00:33:17.669Z,4.10
2018-03-21T00:35:46.161Z,4.50
2018-03-21T00:38:14.576Z,4.40
2018-03-21T00:40:43.000Z,4.40
2018-03-21T00:43:11.469Z,4.27
2018-03-21T00:45:39.921Z,4.30
2018-03-21T00:48:08.338Z,4.13
2018-03-21T00:50:36.789Z,4.27
2018-03-21T00:53:05.225Z,4.73
2018-03-21T00:55:33.656Z,4.30
2018-03-21T00:58:02.144Z,3.93
2018-03-21T01:00:30.569Z,3.50
2018-03-21T01:02:58.977Z,4.17
2018-03-21T01:05:27.426Z,3.63
2018-03-21T01:07:55.833Z,4.13
2018-03-21T01:10:24.245Z,4.33
2018-03-21T01:12:52.717Z,4.37
2018-03-21T01:15:21.157Z,3.80
2018-03-21T01:17:49.582Z,4.20
2018-03-21T01:20:18.041Z,3.60
2018-03-21T01:22:46.465Z,3.80
2018-03-21T01:25:14.887Z,3.73
2018-03-21T01:27:43.349Z,3.20
2018-03-21T01:30:11.777Z,3.33
2018-03-21T01:32:40.205Z,4.60
2018-03-21T01:35:08.673Z,3.90
2018-03-21T01:37:37.124Z,4.00
2018-03-21T01:40:05.565Z,3.60
2018-03-21T01:42:34.048Z,3.73
2018-03-21T01:45:02.481Z,3.60
2018-03-21T01:47:30.894Z,4.23
2018-03-21T01:49:59.383Z,3.80
2018-03-21T01:52:27.828Z,7.60
2018-03-21T01:54:56.265Z,6.60
2018-03-21T01:57:24.742Z,4.63
2018-03-21T01:59:53.176Z,5.43
2018-03-21T02:02:21.592Z,4.33
2018-03-21T02:04:50.058Z,4.20
2018-03-21T02:07:18.493Z,3.77
2018-03-21T02:09:46.905Z,3.73
2018-03-21T02:12:15.372Z,3.80
2018-03-21T02:14:43.785Z,3.47
2018-03-21T02:17:12.194Z,3.80
2018-03-21T02:19:40.654Z,4.10
2018-03-21T02:22:09.060Z,4.03
2018-03-21T02:24:37.489Z,3.70
2018-03-21T02:27:05.989Z,3.50
2018-03-21T02:29:34.402Z,4.03
2018-03-21T02:32:02.825Z,4.03
2018-03-21T02:34:31.299Z,3.63
2018-03-21T02:36:59.760Z,3.97
2018-03-21T02:39:28.176Z,3.63
2018-03-21T02:41:56.629Z,3.50
2018-03-21T02:44:25.040Z,3.80
2018-03-21T02:46:53.452Z,3.37
2018-03-21T02:49:22.062Z,3.87
2018-03-21T02:51:50.485Z,3.70
2018-03-21T02:54:18.903Z,3.43
2018-03-21T02:56:47.371Z,3.33
2018-03-21T02:59:15.777Z,4.17
2018-03-21T03:01:44.199Z,3.43
2018-03-21T03:04:12.675Z,3.60
2018-03-21T03:06:41.087Z,3.80
2018-03-21T03:09:09.508Z,3.73
2018-03-21T03:11:37.968Z,3.90
2018-03-21T03:14:06.392Z,3.90
2018-03-21T03:16:34.801Z,3.80
2018-03-21T03:19:03.267Z,3.40
2018-03-21T03:21:31.677Z,3.53
2018-03-21T03:24:00.092Z,3.70
2018-03-21T03:26:28.572Z,3.57
2018-03-21T03:28:56.982Z,4.00
2018-03-21T03:31:25.394Z,3.20
2018-03-21T03:33:53.860Z,3.83
2018-03-21T03:36:22.295Z,3.43
2018-03-21T03:38:50.787Z,3.47
2018-03-21T03:41:19.253Z,3.50
2018-03-21T03:43:47.680Z,3.60
2018-03-21T03:46:16.095Z,3.57
2018-03-21T03:48:44.734Z,3.57
2018-03-21T03:51:13.209Z,3.17
2018-03-21T03:53:41.633Z,3.50
2018-03-21T03:56:10.116Z,3.47
2018-03-21T03:58:38.526Z,3.17
2018-03-21T04:01:06.933Z,3.80
2018-03-21T04:03:35.395Z,3.20
2018-03-21T04:06:03.840Z,3.57
2018-03-21T04:08:32.273Z,3.37
2018-03-21T04:11:00.933Z,3.43
2018-03-21T04:13:29.352Z,2.70
2018-03-21T04:15:57.776Z,3.00
2018-03-21T04:18:26.240Z,3.30
2018-03-21T04:20:54.665Z,3.33
2018-03-21T04:23:23.081Z,3.03
2018-03-21T04:25:51.542Z,3.30
2018-03-21T04:28:19.964Z,3.33
2018-03-21T04:30:48.378Z,3.13
2018-03-21T04:33:16.830Z,3.73
2018-03-21T04:35:45.255Z,3.03
2018-03-21T04:38:13.682Z,3.50
2018-03-21T04:40:42.134Z,3.33
2018-03-21T04:43:10.538Z,3.53
2018-03-21T04:45:38.969Z,3.77
2018-03-21T04:48:07.451Z,3.43
2018-03-21T04:50:35.892Z,3.60
2018-03-21T04:53:04.338Z,3.63
2018-03-21T04:55:32.790Z,3.57
2018-03-21T04:58:01.214Z,3.37
2018-03-21T05:00:29.641Z,3.03
2018-03-21T05:02:58.105Z,3.43
2018-03-21T05:05:26.540Z,3.87
2018-03-21T05:07:54.946Z,3.77
2018-03-21T05:10:23.441Z,12.87
2018-03-21T05:12:51.884Z,58.90
2018-03-21T05:15:20.342Z,31.67
2018-03-21T05:17:48.832Z,16.80
2018-03-21T05:20:17.251Z,9.37
2018-03-21T05:22:45.685Z,10.43
2018-03-21T05:25:14.181Z,10.53
2018-03-21T05:27:42.609Z,8.47
2018-03-21T05:30:11.032Z,5.80
2018-03-21T05:32:39.739Z,12.20
2018-03-21T05:35:08.171Z,18.03
2018-03-21T05:37:36.598Z,29.40
2018-03-21T05:40:05.083Z,9.83
2018-03-21T05:42:33.505Z,9.30
2018-03-21T05:45:01.932Z,4.80
2018-03-21T05:47:30.398Z,5.10
2018-03-21T05:49:58.816Z,4.37
2018-03-21T05:52:28.170Z,4.70
2018-03-21T05:54:56.626Z,4.83
2018-03-21T05:57:25.039Z,9.67
2018-03-21T05:59:53.461Z,57.50
2018-03-21T06:02:21.940Z,68.60
2018-03-21T06:04:50.383Z,146.20
2018-03-21T06:07:18.819Z,110.07
2018-03-21T06:09:47.318Z,132.63
2018-03-21T06:12:15.766Z,296.27
2018-03-21T06:14:44.203Z,185.60
2018-03-21T06:17:12.694Z,136.17
2018-03-21T06:19:41.129Z,156.63
2018-03-21T06:22:09.580Z,144.97
2018-03-21T06:24:38.076Z,101.27
2018-03-21T06:27:06.518Z,190.23
2018-03-21T06:29:34.972Z,118.43
2018-03-21T06:32:03.450Z,56.60
2018-03-21T06:34:31.888Z,67.97
2018-03-21T06:37:00.324Z,48.67
2018-03-21T06:39:28.821Z,25.33
2018-03-21T06:41:57.258Z,44.27
2018-03-21T06:44:25.690Z,17.30
2018-03-21T06:46:54.167Z,17.00
2018-03-21T06:49:22.591Z,11.53
2018-03-21T06:51:51.020Z,7.20
2018-03-21T06:54:19.500Z,54.00
2018-03-21T06:57:03.747Z,35.87
2018-03-21T06:59:32.234Z,21.03
2018-03-21T07:02:00.664Z,9.33
2018-03-21T07:04:29.078Z,9.27
2018-03-21T07:06:57.555Z,20.50
2018-03-21T07:09:25.990Z,16.07
2018-03-21T07:11:54.421Z,9.77
2018-03-21T07:14:34.583Z,6.00
2018-03-21T07:17:03.010Z,14.03
2018-03-21T07:19:31.441Z,8.03
2018-03-21T07:21:59.923Z,9.10
2018-03-21T07:24:28.346Z,8.80
2018-03-21T07:26:56.784Z,8.27
2018-03-21T07:29:25.242Z,5.73
2018-03-21T07:31:53.684Z,9.43
2018-03-21T07:34:22.093Z,9.80
2018-03-21T07:36:50.542Z,6.13
2018-03-21T07:39:18.966Z,5.23
2018-03-21T07:41:47.374Z,9.00
2018-03-21T07:44:15.838Z,8.33
2018-03-21T07:46:44.250Z,6.00
2018-03-21T07:49:12.679Z,8.23
2018-03-21T07:51:41.526Z,7.27
2018-03-21T07:54:09.935Z,7.23
2018-03-21T07:56:38.404Z,6.93
2018-03-21T07:59:06.858Z,9.40
2018-03-21T08:01:35.285Z,7.87
2018-03-21T08:04:03.712Z,16.90
2018-03-21T08:06:32.193Z,8.50
2018-03-21T08:09:00.638Z,5.87
2018-03-21T08:11:29.057Z,6.97
2018-03-21T08:13:57.510Z,9.63
2018-03-21T08:16:25.961Z,6.90
2018-03-21T08:18:54.373Z,6.87
2018-03-21T08:21:22.817Z,7.33
2018-03-21T08:23:51.231Z,7.37
2018-03-21T08:26:19.645Z,9.03
2018-03-21T08:28:48.181Z,7.90
2018-03-21T08:31:16.595Z,6.83
2018-03-21T08:33:45.003Z,6.63
2018-03-21T08:36:13.464Z,5.97
2018-03-21T08:38:41.888Z,6.03
2018-03-21T08:41:10.321Z,6.40
2018-03-21T08:43:38.798Z,6.70
2018-03-21T08:46:07.249Z,5.90
2018-03-21T08:48:35.671Z,5.20
2018-03-21T08:51:04.157Z,5.33
2018-03-21T08:53:32.575Z,5.07
2018-03-21T08:56:00.973Z,4.90
2018-03-21T08:58:29.443Z,4.53
2018-03-21T09:00:57.876Z,4.80
2018-03-21T09:03:26.286Z,4.80
2018-03-21T09:05:54.736Z,5.70
2018-03-21T09:08:23.156Z,4.20
2018-03-21T09:10:51.558Z,4.43
2018-03-21T09:13:20.013Z,4.30
2018-03-21T09:15:48.444Z,3.73
2018-03-21T09:18:16.927Z,4.07
2018-03-21T09:20:45.365Z,4.30
2018-03-21T09:23:13.788Z,4.07
2018-03-21T09:25:42.202Z,2.70
2018-03-21T09:28:10.665Z,3.67
2018-03-21T09:30:39.089Z,4.10
2018-03-21T09:33:07.494Z,3.77
2018-03-21T09:35:35.976Z,3.30
2018-03-21T09:38:04.390Z,2.90
2018-03-21T09:40:32.800Z,3.30
2018-03-21T09:43:01.264Z,3.83
2018-03-21T09:45:29.693Z,4.67
2018-03-21T09:47:58.106Z,3.37
2018-03-21T09:50:26.589Z,3.37
2018-03-21T09:52:55.013Z,3.43
2018-03-21T09:55:23.484Z,3.53
2018-03-21T09:57:51.915Z,3.27
2018-03-21T10:00:20.314Z,3.50
2018-03-21T10:02:48.727Z,3.10
2018-03-21T10:05:17.209Z,2.90
2018-03-21T10:07:45.633Z,3.43
2018-03-21T10:10:14.066Z,3.20
2018-03-21T10:12:42.529Z,3.23
2018-03-21T10:15:10.954Z,3.33
2018-03-21T10:17:39.358Z,3.20
2018-03-21T10:20:07.817Z,3.30
2018-03-21T10:22:36.281Z,3.87
2018-03-21T10:25:04.707Z,3.53
2018-03-21T10:27:33.213Z,3.00
2018-03-21T10:30:01.633Z,3.10
2018-03-21T10:32:30.085Z,3.37
2018-03-21T10:34:58.570Z,3.10
2018-03-21T10:37:26.974Z,3.03
2018-03-21T10:39:55.379Z,3.10
2018-03-21T10:42:23.857Z,3.37
2018-03-21T10:44:52.295Z,3.03
2018-03-21T10:47:20.735Z,2.90
2018-03-21T10:49:49.487Z,2.93
2018-03-21T10:52:17.927Z,3.10
2018-03-21T10:54:46.353Z,2.90
2018-03-21T10:57:14.844Z,2.90
2018-03-21T10:59:43.277Z,2.90
2018-03-21T11:02:14.538Z,2.57
2018-03-21T11:04:42.962Z,2.97
2018-03-21T11:07:11.366Z,2.70
2018-03-21T11:09:39.842Z,2.40
2018-03-21T11:12:08.276Z,3.17
2018-03-21T11:14:36.690Z,2.73
2018-03-21T11:17:05.150Z,2.70
2018-03-21T11:19:33.569Z,2.40
2018-03-21T11:22:02.008Z,2.63
2018-03-21T11:24:30.488Z,3.00
2018-03-21T11:26:58.921Z,2.70
2018-03-21T11:29:27.340Z,2.70
2018-03-21T11:31:55.791Z,2.50
2018-03-21T11:34:24.224Z,2.33
2018-03-21T11:36:52.634Z,2.47
2018-03-21T11:39:21.104Z,2.20
2018-03-21T11:41:49.533Z,2.70
2018-03-21T11:44:18.010Z,2.57
2018-03-21T11:46:46.468Z,2.37
2018-03-21T11:49:14.897Z,2.73
2018-03-21T11:51:43.316Z,2.30
2018-03-21T11:54:11.767Z,2.60
2018-03-21T11:56:40.198Z,2.67
2018-03-21T11:59:08.616Z,2.33
2018-03-21T12:01:37.102Z,2.53
2018-03-21T12:04:05.533Z,2.00
2018-03-21T12:06:33.934Z,2.03
2018-03-21T12:09:02.381Z,2.10
2018-03-21T12:11:30.787Z,2.10
2018-03-21T12:13:59.198Z,2.10
2018-03-21T12:16:28.006Z,1.90
2018-03-21T12:18:56.405Z,2.20
2018-03-21T12:21:24.822Z,2.27
2018-03-21T12:23:53.297Z,1.80
2018-03-21T12:26:21.720Z,1.83
2018-03-21T12:28:50.140Z,1.73
2018-03-21T12:31:18.582Z,1.83
2018-03-21T12:33:47.002Z,1.93
2018-03-21T12:36:15.401Z,1.93
2018-03-21T12:38:43.873Z,1.60
2018-03-21T12:41:12.282Z,1.33
2018-03-21T12:43:40.691Z,1.77
2018-03-21T12:46:09.325Z,1.60
2018-03-21T12:48:37.734Z,1.73
2018-03-21T12:51:06.150Z,1.73
2018-03-21T12:53:34.599Z,1.77
2018-03-21T12:56:03.044Z,1.70
2018-03-21T12:58:31.471Z,1.70
2018-03-21T13:00:59.913Z,1.50
2018-03-21T13:03:28.337Z,1.63
2018-03-21T13:05:56.738Z,2.07
2018-03-21T13:08:25.209Z,1.90
2018-03-21T13:10:53.628Z,1.83
2018-03-21T13:13:22.034Z,1.83
2018-03-21T13:15:50.509Z,1.70
2018-03-21T13:18:18.929Z,2.10
2018-03-21T13:20:47.329Z,1.77
2018-03-21T13:23:15.783Z,2.07
2018-03-21T13:25:44.204Z,1.90
2018-03-21T13:28:12.623Z,2.00
2018-03-21T13:30:41.094Z,1.90
2018-03-21T13:33:09.539Z,1.83
2018-03-21T13:35:37.950Z,1.60
2018-03-21T13:38:06.432Z,1.97
2018-03-21T13:40:34.834Z,1.70
2018-03-21T13:43:03.257Z,2.00
2018-03-21T13:45:31.710Z,1.67
2018-03-21T13:48:00.170Z,1.53
2018-03-21T13:50:28.578Z,1.80
2018-03-21T13:52:57.057Z,1.73
2018-03-21T13:55:25.463Z,1.80
2018-03-21T13:57:53.885Z,1.97
2018-03-21T14:00:22.350Z,1.90
2018-03-21T14:02:50.773Z,2.37
2018-03-21T14:05:19.243Z,1.97
2018-03-21T14:07:47.674Z,2.20
2018-03-21T14:10:16.084Z,2.20
2018-03-21T14:12:44.553Z,2.43
2018-03-21T14:15:12.999Z,2.27
2018-03-21T14:17:41.421Z,2.37
2018-03-21T14:20:09.846Z,2.20
2018-03-21T14:22:38.294Z,2.30
2018-03-21T14:25:06.712Z,2.90
2018-03-21T14:27:35.137Z,3.20
2018-03-21T14:30:03.742Z,2.60
2018-03-21T14:32:32.169Z,2.33
2018-03-21T14:35:00.588Z,2.80
2018-03-21T14:37:29.044Z,3.10
2018-03-21T14:39:57.452Z,3.23
2018-03-21T14:42:25.892Z,3.20
2018-03-21T14:44:54.340Z,3.73
2018-03-21T14:47:22.742Z,3.07
2018-03-21T14:49:51.155Z,3.37
2018-03-21T14:52:19.632Z,3.70
2018-03-21T14:54:48.050Z,3.43
2018-03-21T14:57:16.463Z,4.80
2018-03-21T14:59:45.072Z,4.20
2018-03-21T15:02:13.502Z,4.67
2018-03-21T15:04:41.932Z,4.40
2018-03-21T15:07:10.390Z,4.27
2018-03-21T15:09:38.817Z,4.30
2018-03-21T15:12:07.236Z,5.03
2018-03-21T15:14:35.720Z,5.50
2018-03-21T15:17:04.131Z,5.50
2018-03-21T15:19:32.551Z,5.50
2018-03-21T15:22:01.017Z,5.23
2018-03-21T15:24:29.426Z,5.03
2018-03-21T15:26:57.861Z,5.07
2018-03-21T15:29:26.310Z,5.80
2018-03-21T15:31:54.715Z,5.00
2018-03-21T15:34:23.138Z,4.90
2018-03-21T15:36:51.601Z,4.97
2018-03-21T15:39:20.020Z,4.90
2018-03-21T15:41:48.451Z,4.47
2018-03-21T15:44:16.906Z,4.47
2018-03-21T15:46:45.329Z,4.60
2018-03-21T15:49:13.757Z,4.33
2018-03-21T15:51:42.237Z,5.23
2018-03-21T15:54:10.916Z,4.33
2018-03-21T15:56:39.345Z,4.97
2018-03-21T15:59:07.801Z,5.47
2018-03-21T16:01:36.230Z,5.57
2018-03-21T16:04:04.641Z,5.27
2018-03-21T16:06:33.121Z,5.10
2018-03-21T16:09:01.556Z,4.60
2018-03-21T16:11:29.984Z,5.23
2018-03-21T16:13:58.446Z,5.00
2018-03-21T16:16:26.850Z,4.47
2018-03-21T16:18:55.258Z,4.20
2018-03-21T16:21:23.713Z,4.30
2018-03-21T16:23:52.131Z,3.87
2018-03-21T16:26:20.530Z,3.53
2018-03-21T16:28:48.994Z,3.70
2018-03-21T16:31:17.457Z,4.50
2018-03-21T16:33:45.866Z,3.63
2018-03-21T16:36:14.333Z,4.00
2018-03-21T16:38:42.760Z,3.37
2018-03-21T16:41:11.162Z,4.77
2018-03-21T16:43:39.630Z,4.30
2018-03-21T16:46:08.057Z,4.57
2018-03-21T16:48:36.458Z,4.23
2018-03-21T16:51:04.945Z,4.30
2018-03-21T16:53:33.376Z,4.57
2018-03-21T16:56:01.806Z,4.43
2018-03-21T16:58:30.258Z,4.63
2018-03-21T17:00:58.681Z,4.40
2018-03-21T17:03:27.092Z,4.70
2018-03-21T17:05:55.550Z,5.27
2018-03-21T17:08:23.981Z,5.40
2018-03-21T17:10:52.404Z,5.03
2018-03-21T17:13:20.877Z,6.07
2018-03-21T17:15:49.286Z,6.30
2018-03-21T17:18:17.699Z,5.47
2018-03-21T17:20:46.168Z,5.93
2018-03-21T17:23:14.593Z,6.10
2018-03-21T17:25:43.004Z,6.60
2018-03-21T17:28:11.459Z,6.37
2018-03-21T17:30:39.917Z,6.67
2018-03-21T17:33:08.331Z,6.70
2018-03-21T17:35:36.790Z,6.47
2018-03-21T17:38:05.207Z,7.47
2018-03-21T17:40:33.626Z,7.00
2018-03-21T17:43:02.116Z,7.23
2018-03-21T17:45:30.530Z,8.30
2018-03-21T17:47:58.938Z,8.57
2018-03-21T17:50:27.421Z,11.60
2018-03-21T17:52:55.848Z,10.67
2018-03-21T17:55:24.292Z,11.47
2018-03-21T17:57:52.792Z,14.27
2018-03-21T18:00:21.287Z,16.00
2018-03-21T18:02:50.071Z,8.97
2018-03-21T18:05:18.680Z,8.97
2018-03-21T18:07:47.113Z,8.73
2018-03-21T18:10:15.527Z,11.20
2018-03-21T18:12:43.978Z,8.47
2018-03-21T18:15:12.389Z,7.80
2018-03-21T18:17:40.824Z,7.93
2018-03-21T18:20:09.289Z,7.10
2018-03-21T18:22:37.709Z,8.53
2018-03-21T18:25:06.138Z,7.23
2018-03-21T18:27:34.614Z,7.53
2018-03-21T18:30:03.104Z,8.33
2018-03-21T18:32:31.522Z,12.50
2018-03-21T18:35:00.010Z,9.90
2018-03-21T18:37:28.434Z,10.33
2018-03-21T18:39:56.851Z,9.10
2018-03-21T18:42:25.321Z,7.47
2018-03-21T18:44:53.741Z,8.43
2018-03-21T18:47:22.149Z,7.23
2018-03-21T18:49:50.654Z,7.37
2018-03-21T18:52:19.108Z,7.97
2018-03-21T18:54:47.546Z,7.37
2018-03-21T18:57:16.033Z,7.40
2018-03-21T18:59:44.466Z,8.20
2018-03-21T19:02:12.880Z,8.03
2018-03-21T19:04:41.394Z,7.43
2018-03-21T19:07:09.820Z,7.80
2018-03-21T19:09:38.230Z,8.90
2018-03-21T19:12:06.713Z,9.17
2018-03-21T19:14:35.129Z,8.43
2018-03-21T19:17:03.556Z,8.00
2018-03-21T19:19:32.047Z,8.77
2018-03-21T19:22:00.458Z,8.43
2018-03-21T19:24:28.893Z,8.07
2018-03-21T19:26:57.365Z,8.20
2018-03-21T19:29:25.787Z,8.10
2018-03-21T19:31:54.245Z,8.37
2018-03-21T19:34:22.736Z,8.23
2018-03-21T19:36:51.191Z,8.37
2018-03-21T19:39:19.601Z,9.70
2018-03-21T19:41:48.081Z,7.80
2018-03-21T19:44:16.501Z,8.90
2018-03-21T19:46:44.921Z,7.93
2018-03-21T19:49:13.417Z,7.87
2018-03-21T19:51:41.848Z,8.47
2018-03-21T19:54:11.052Z,8.50
2018-03-21T19:56:39.514Z,8.47
2018-03-21T19:59:07.977Z,8.57
2018-03-21T20:01:36.452Z,8.90
2018-03-21T20:04:04.944Z,8.10
2018-03-21T20:06:33.370Z,7.43
2018-03-21T20:09:01.787Z,8.47
2018-03-21T20:11:30.247Z,8.70
2018-03-21T20:13:58.675Z,7.90
2018-03-21T20:16:27.089Z,8.57
2018-03-21T20:18:55.580Z,8.30
2018-03-21T20:21:23.990Z,10.57
2018-03-21T20:23:52.402Z,8.47
2018-03-21T20:26:20.885Z,8.70
2018-03-21T20:28:49.298Z,9.70
2018-03-21T20:31:17.739Z,8.97
2018-03-21T20:33:46.237Z,8.53
2018-03-21T20:36:14.646Z,8.50
2018-03-21T20:38:43.050Z,8.80
2018-03-21T20:41:11.548Z,8.67
2018-03-21T20:43:39.982Z,8.67
2018-03-21T20:46:08.409Z,9.17
2018-03-21T20:48:36.879Z,7.57
2018-03-21T20:51:05.368Z,9.00
2018-03-21T20:53:33.754Z,8.30
2018-03-21T20:56:02.213Z,7.50
2018-03-21T20:58:30.637Z,7.63
2018-03-21T21:00:59.064Z,7.90
2018-03-21T21:03:27.526Z,8.53
2018-03-21T21:05:55.990Z,8.10
2018-03-21T21:08:24.426Z,8.80
2018-03-21T21:10:52.898Z,8.17
2018-03-21T21:13:21.329Z,7.97
2018-03-21T21:15:49.761Z,8.70
2018-03-21T21:18:18.232Z,8.63
2018-03-21T21:20:46.654Z,8.93
2018-03-21T21:23:15.081Z,8.17
2018-03-21T21:25:43.574Z,8.70
2018-03-21T21:28:11.986Z,9.73
2018-03-21T21:30:40.394Z,9.23
2018-03-21T21:33:08.878Z,9.40
2018-03-21T21:35:37.306Z,10.00
2018-03-21T21:38:05.727Z,10.73
2018-03-21T21:40:34.216Z,11.30
2018-03-21T21:43:02.668Z,12.17
2018-03-21T21:45:31.117Z,12.90
2018-03-21T21:47:59.612Z,13.20
2018-03-21T21:50:28.053Z,12.70
2018-03-21T21:52:56.496Z,14.07
2018-03-21T21:55:24.954Z,14.70
2018-03-21T21:57:53.401Z,16.40
2018-03-21T22:00:21.814Z,18.87
2018-03-21T22:02:50.283Z,19.30
2018-03-21T22:05:18.713Z,20.57
2018-03-21T22:07:47.157Z,21.33
2018-03-21T22:10:15.622Z,21.10
2018-03-21T22:12:44.086Z,21.17
2018-03-21T22:15:12.530Z,21.77
2018-03-21T22:17:41.021Z,20.93
2018-03-21T22:20:09.452Z,23.63
2018-03-21T22:22:37.864Z,23.47
2018-03-21T22:25:06.322Z,24.03
2018-03-21T22:27:34.752Z,24.90
2018-03-21T22:30:03.177Z,24.13
2018-03-21T22:32:31.630Z,24.80
2018-03-21T22:35:00.060Z,23.47
2018-03-21T22:37:28.481Z,24.90
2018-03-21T22:39:56.954Z,25.53
2018-03-21T22:42:25.380Z,26.20
2018-03-21T22:44:53.812Z,25.23
2018-03-21T22:47:22.284Z,26.43
2018-03-21T22:49:50.716Z,26.57
2018-03-21T22:52:19.130Z,25.53
2018-03-21T22:54:47.599Z,28.27
2018-03-21T22:57:16.017Z,28.23
2018-03-21T22:59:44.442Z,28.10
2018-03-21T23:02:12.910Z,27.73
2018-03-21T23:04:41.342Z,27.07
2018-03-21T23:07:09.778Z,26.67
2018-03-21T23:09:38.338Z,27.00
2018-03-21T23:12:06.755Z,27.07
2018-03-21T23:14:35.170Z,27.80
2018-03-21T23:17:03.625Z,27.97
2018-03-21T23:19:32.054Z,27.83
2018-03-21T23:22:00.470Z,28.00
2018-03-21T23:24:28.938Z,28.23
2018-03-21T23:26:57.369Z,27.93
2018-03-21T23:29:25.831Z,28.43
2018-03-21T23:31:54.275Z,28.13
2018-03-21T23:34:22.725Z,28.83
2018-03-21T23:36:51.150Z,28.93
2018-03-21T23:39:19.626Z,28.30
2018-03-21T23:41:48.065Z,26.63
2018-03-21T23:44:16.502Z,28.77
2018-03-21T23:46:44.994Z,30.23
2018-03-21T23:49:13.423Z,30.00
2018-03-21T23:51:41.853Z,27.60
2018-03-21T23:54:10.961Z,29.60
2018-03-21T23:56:39.386Z,28.37
2018-03-21T23:59:07.805Z,29.30
